Airfield :
LOGIN :

Register | Disclaimer

   EN    FR    IT 

 










Legend :    VFR   Marginal VFR   IFR   Intensive IFR   Very Intensive IFR
Visi :
Ceiling :
>= 8 km
>= 3000ft
5 to 8 km
1000 to 3000 ft
1500m to 5 km
500 to 1000 ft
800 to 1500m
200 to 500 ft
< 800m
< 200 ft
Symbols :   Thunderstorms  Fog  Heavy snow  Heavy precipitations  Wind > 20 kt
SIGMETs :     Misc.  Thunderstorms  Icing  Turbulence  Mountain Waves  Volcanic Ashes






- Airport Elevation : 162 ft
- IATA code : BOD


LFBD - Bordeaux / Merignac

CURRENT METAR :
  • 051930Z AUTO VRB02KT 6000 2600 R05/1300U NSC 06/05 Q1024

EXPIRED METARs :
  • 051900Z AUTO VRB01KT 7000 1100 R23/P2300 R05/1400D R29/P2300 NSC 06/04 Q1024
  • 051830Z AUTO 00000KT CAVOK 07/05 Q1024
  • 051800Z AUTO 35003KT 320V050 CAVOK 08/06 Q1024 BECMG 4000 BR
  • 051730Z AUTO 01005KT CAVOK 08/06 Q1024 BECMG 4000 BR
  • 051700Z AUTO 03004KT 360V080 CAVOK 09/06 Q1023 BECMG 4000 BR

TAF TAF LFBD
Valid from the 05 at 18:00 until the 07 at 00:00 UTC


051700Z 0518/0624 02005KT CAVOK TX09/0614Z TN03/0606Z
BECMG 0518/0520 4000 BR
BECMG 0521/0523 0500 FG VV///
TEMPO 0600/0608 0200
BECMG 0611/0613 4000 BR BKN005
PROB40
TEMPO 0613/0617 SCT005
PROB40 0618/0624 0500 FG VV///
ATIS : +33 5 57 92 81 04



MET'MAP, your aeronautical weather chart ! - Copyright ORBIFLY December 2007 - Disclaimer

ORBIFLY MET'MAP TEAM :

Programming & Development : Alexandra Zaïnal
Concept & original design : Baudouin d'Aumeries
Assistance for programming : Marc-Olivier Méhu
Technical & hardware support : Manuel Goepfert

Contact : metmap@orbifly.com




SOURCES & CREDITS :

   NOAA